createdAt,value
2023-02-06T00:01:35.302Z,101722.34
2023-02-06T00:04:04.663Z,101721.28
2023-02-06T00:06:33.426Z,101720.88
2023-02-06T00:09:01.969Z,101733.75
2023-02-06T00:11:30.095Z,101723.63
2023-02-06T00:13:58.194Z,101736.88
2023-02-06T00:16:27.760Z,101740.69
2023-02-06T00:18:57.389Z,101740.34
2023-02-06T00:21:28.255Z,101746.22
2023-02-06T00:23:57.735Z,101742.78
2023-02-06T00:26:26.073Z,101744.53
2023-02-06T00:28:54.265Z,101749.53
2023-02-06T00:31:22.283Z,101738.06
2023-02-06T00:33:50.388Z,101742.28
2023-02-06T00:36:18.249Z,101727.59
2023-02-06T00:38:47.480Z,101735.31
2023-02-06T00:41:15.346Z,101734.94
2023-02-06T00:43:43.607Z,101751.72
2023-02-06T00:46:11.865Z,101748.03
2023-02-06T00:48:39.883Z,101750.66
2023-02-06T00:51:07.696Z,101740.88
2023-02-06T00:53:38.051Z,101746.28
2023-02-06T00:56:07.725Z,101747.47
2023-02-06T00:58:35.650Z,101755.81
2023-02-06T01:01:04.568Z,101756.16
2023-02-06T01:03:32.426Z,101752.09
2023-02-06T01:06:00.350Z,101749.81
2023-02-06T01:08:28.201Z,101751.03
2023-02-06T01:10:56.038Z,101748.78
2023-02-06T01:13:25.247Z,101738.97
2023-02-06T01:15:53.271Z,101717.00
2023-02-06T01:18:21.206Z,101727.72
2023-02-06T01:20:49.063Z,101728.25
2023-02-06T01:23:16.973Z,101731.75
2023-02-06T01:25:45.472Z,101731.75
2023-02-06T01:28:13.471Z,101735.19
2023-02-06T01:30:43.898Z,101737.97
2023-02-06T01:33:11.866Z,101733.44
2023-02-06T01:35:39.793Z,101733.63
2023-02-06T01:38:08.563Z,101736.94
2023-02-06T01:40:36.457Z,101738.00
2023-02-06T01:43:04.282Z,101748.78
2023-02-06T01:45:45.937Z,101739.66
2023-02-06T01:48:18.126Z,101740.06
2023-02-06T01:50:52.468Z,101713.16
2023-02-06T01:53:23.471Z,101741.28
2023-02-06T01:55:53.594Z,101742.78
2023-02-06T01:58:26.894Z,101718.03
2023-02-06T02:00:58.568Z,101725.75
2023-02-06T02:03:27.194Z,101726.13
2023-02-06T02:06:00.602Z,101723.69
2023-02-06T02:08:34.931Z,101722.94
2023-02-06T02:11:04.395Z,101714.53
2023-02-06T02:13:34.198Z,101716.78
2023-02-06T02:16:13.363Z,101714.34
2023-02-06T02:19:06.457Z,101712.59
2023-02-06T02:22:08.588Z,101702.78
2023-02-06T02:25:00.160Z,101697.09
2023-02-06T02:27:45.681Z,101705.47
2023-02-06T02:30:48.979Z,101696.06
2023-02-06T02:33:58.699Z,101706.53
2023-02-06T02:36:35.013Z,101706.72
2023-02-06T02:39:11.216Z,101694.94
2023-02-06T02:41:45.419Z,101694.75
2023-02-06T02:44:22.305Z,101701.06
2023-02-06T02:46:55.270Z,101695.44
2023-02-06T02:49:27.511Z,101706.28
2023-02-06T02:51:58.675Z,101711.16
2023-02-06T02:54:26.535Z,101710.09
2023-02-06T02:56:56.523Z,101704.84
2023-02-06T02:59:30.493Z,101697.66
2023-02-06T03:02:03.688Z,101676.78
2023-02-06T03:04:38.958Z,101707.66
2023-02-06T03:07:18.738Z,101699.28
2023-02-06T03:09:55.110Z,101708.47
2023-02-06T03:12:38.925Z,101718.00
2023-02-06T03:15:14.776Z,101714.16
2023-02-06T03:17:47.462Z,101705.19
2023-02-06T03:20:16.001Z,101709.38
2023-02-06T03:22:48.478Z,101705.31
2023-02-06T03:25:23.820Z,101707.53
2023-02-06T03:27:53.745Z,101705.41
2023-02-06T03:30:23.943Z,101700.66
2023-02-06T03:32:57.452Z,101691.06
2023-02-06T03:35:30.747Z,101700.16
2023-02-06T03:38:00.138Z,101705.22
2023-02-06T03:40:29.646Z,101705.03
2023-02-06T03:43:01.936Z,101712.34
2023-02-06T03:45:33.167Z,101716.66
2023-02-06T03:48:05.349Z,101714.41
2023-02-06T03:50:37.003Z,101720.66
2023-02-06T03:53:06.601Z,101718.94
2023-02-06T03:55:35.863Z,101724.69
2023-02-06T03:58:08.298Z,101730.44
2023-02-06T04:00:38.654Z,101719.25
2023-02-06T04:03:06.887Z,101717.88
2023-02-06T04:05:35.098Z,101706.81
2023-02-06T04:08:03.248Z,101711.88
2023-02-06T04:10:32.437Z,101725.94
2023-02-06T04:13:00.428Z,101726.13
2023-02-06T04:15:28.316Z,101736.56
2023-02-06T04:18:01.551Z,101728.31
2023-02-06T04:20:30.690Z,101734.19
2023-02-06T04:22:58.651Z,101735.19
2023-02-06T04:25:27.033Z,101726.81
2023-02-06T04:27:56.372Z,101721.06
2023-02-06T04:30:24.309Z,101726.63
2023-02-06T04:32:52.653Z,101736.25
2023-02-06T04:35:20.719Z,101734.63
2023-02-06T04:37:48.608Z,101729.06
2023-02-06T04:40:16.669Z,101721.75
2023-02-06T04:42:44.699Z,101716.50
2023-02-06T04:45:14.427Z,101733.44
2023-02-06T04:47:42.272Z,101706.97
2023-02-06T04:50:11.395Z,101728.56
2023-02-06T04:52:39.226Z,101723.69
2023-02-06T04:55:07.788Z,101727.16
2023-02-06T04:57:35.722Z,101721.59
2023-02-06T05:00:03.758Z,101726.47
2023-02-06T05:02:37.464Z,101717.38
2023-02-06T05:05:05.819Z,101721.59
2023-02-06T05:07:33.694Z,101723.63
2023-02-06T05:10:01.708Z,101716.63
2023-02-06T05:12:29.952Z,101712.75
2023-02-06T05:14:57.801Z,101716.00
2023-02-06T05:17:25.721Z,101718.31
2023-02-06T05:19:56.441Z,101719.56
2023-02-06T05:22:25.810Z,101720.44
2023-02-06T05:24:53.833Z,101718.94
2023-02-06T05:27:21.715Z,101717.19
2023-02-06T05:29:49.577Z,101697.44
2023-02-06T05:32:18.211Z,101716.72
2023-02-06T05:34:46.358Z,101716.72
2023-02-06T05:37:15.545Z,101713.81
2023-02-06T05:39:43.388Z,101715.44
2023-02-06T05:42:11.324Z,101716.00
2023-02-06T05:44:39.195Z,101722.31
2023-02-06T05:47:07.085Z,101729.94
2023-02-06T05:49:34.962Z,101727.03
2023-02-06T05:52:02.879Z,101728.53
2023-02-06T05:54:32.372Z,101738.69
2023-02-06T05:57:00.218Z,101737.59
2023-02-06T05:59:28.150Z,101732.75
2023-02-06T06:01:56.060Z,101732.75
2023-02-06T06:04:24.153Z,101720.75
2023-02-06T06:06:52.308Z,101729.03
2023-02-06T06:09:20.236Z,101727.63
2023-02-06T06:11:51.220Z,101724.94
2023-02-06T06:14:19.424Z,101710.94
2023-02-06T06:16:47.442Z,101723.63
2023-02-06T06:19:15.375Z,101729.31
2023-02-06T06:21:43.280Z,101732.81
2023-02-06T06:24:11.271Z,101731.94
2023-02-06T06:26:39.366Z,101722.28
2023-02-06T06:29:08.558Z,101725.31
2023-02-06T06:31:39.381Z,101733.38
2023-02-06T06:34:07.242Z,101730.81
2023-02-06T06:36:35.135Z,101727.19
2023-02-06T06:39:03.020Z,101720.94
2023-02-06T06:41:30.923Z,101723.38
2023-02-06T06:43:59.608Z,101727.56
2023-02-06T06:46:28.791Z,101726.56
2023-02-06T06:49:53.988Z,101727.31
2023-02-06T06:52:25.464Z,101722.63
2023-02-06T06:54:53.755Z,101731.84
2023-02-06T06:57:22.161Z,101736.31
2023-02-06T06:59:50.492Z,101738.38
2023-02-06T07:02:19.780Z,101739.94
2023-02-06T07:04:47.880Z,101740.44
2023-02-06T07:07:16.107Z,101740.06
2023-02-06T07:09:43.952Z,101738.19
2023-02-06T07:12:11.887Z,101742.00
2023-02-06T07:14:41.319Z,101748.44
2023-02-06T07:17:09.294Z,101743.69
2023-02-06T07:19:38.527Z,101748.41
2023-02-06T07:22:06.442Z,101740.69
2023-02-06T07:24:34.315Z,101738.44
2023-02-06T07:27:02.185Z,101732.72
2023-02-06T07:29:30.085Z,101742.13
2023-02-06T07:32:00.762Z,101740.75
2023-02-06T07:34:28.892Z,101734.94
2023-02-06T07:36:59.711Z,101746.31
2023-02-06T07:39:27.665Z,101751.19
2023-02-06T07:41:55.485Z,101751.94
2023-02-06T07:44:27.833Z,101752.91
2023-02-06T07:46:55.628Z,101753.25
2023-02-06T07:49:23.531Z,101743.00
2023-02-06T07:51:51.530Z,101748.63
2023-02-06T07:54:21.063Z,101749.88
2023-02-06T07:56:48.921Z,101743.44
2023-02-06T07:59:17.536Z,101748.56
2023-02-06T08:01:45.801Z,101753.91
2023-02-06T08:04:13.774Z,101759.19
2023-02-06T08:06:42.550Z,101736.44
2023-02-06T08:09:13.414Z,101759.56
2023-02-06T08:11:49.783Z,101760.06
2023-02-06T08:14:17.674Z,101753.44
2023-02-06T08:16:45.637Z,101742.38
2023-02-06T08:19:13.580Z,101753.25
2023-02-06T08:21:41.541Z,101726.88
2023-02-06T08:24:12.724Z,101753.56
2023-02-06T08:26:40.672Z,101757.78
2023-02-06T08:29:10.416Z,101754.34
2023-02-06T08:31:40.344Z,101748.78
2023-02-06T08:34:10.814Z,101750.97
2023-02-06T08:36:39.653Z,101752.44
2023-02-06T08:39:08.193Z,101756.38
2023-02-06T08:41:38.087Z,101756.59
2023-02-06T08:44:09.107Z,101759.97
2023-02-06T08:46:39.825Z,101753.22
2023-02-06T08:49:09.875Z,101745.25
2023-02-06T08:51:37.730Z,101743.50
2023-02-06T08:54:07.896Z,101746.66
2023-02-06T08:56:37.249Z,101752.97
2023-02-06T08:59:06.408Z,101751.91
2023-02-06T09:01:36.362Z,101751.22
2023-02-06T09:04:07.474Z,101751.94
2023-02-06T09:06:36.132Z,101747.34
2023-02-06T09:09:05.478Z,101750.16
2023-02-06T09:11:33.738Z,101752.59
2023-02-06T09:14:03.548Z,101763.09
2023-02-06T09:16:33.220Z,101758.03
2023-02-06T09:19:02.236Z,101762.75
2023-02-06T09:21:32.871Z,101763.09
2023-02-06T09:24:03.013Z,101756.81
2023-02-06T09:26:38.899Z,101754.00
2023-02-06T09:29:10.986Z,101754.00
2023-02-06T09:31:41.022Z,101748.41
2023-02-06T09:34:10.070Z,101743.53
2023-02-06T09:36:39.390Z,101748.59
2023-02-06T09:39:09.500Z,101751.75
2023-02-06T09:41:43.045Z,101747.00
2023-02-06T09:44:17.484Z,101750.16
2023-02-06T09:46:50.511Z,101748.75
2023-02-06T09:49:25.956Z,101739.84
2023-02-06T09:52:10.292Z,101744.91
2023-02-06T09:54:47.078Z,101741.44
2023-02-06T09:57:21.020Z,101737.56
2023-02-06T09:59:52.841Z,101734.59
2023-02-06T10:02:35.930Z,101742.47
2023-02-06T10:05:17.434Z,101737.94
2023-02-06T10:07:59.115Z,101736.19
2023-02-06T10:10:36.232Z,101736.53
2023-02-06T10:13:10.132Z,101737.94
2023-02-06T10:15:45.216Z,101736.53
2023-02-06T10:18:17.344Z,101734.78
2023-02-06T10:20:51.863Z,101699.84
2023-02-06T10:23:29.981Z,101731.31
2023-02-06T10:26:05.917Z,101729.56
2023-02-06T10:28:35.582Z,101740.00
2023-02-06T10:31:15.881Z,101733.22
2023-02-06T10:33:53.092Z,101736.72
2023-02-06T10:36:38.157Z,101735.84
2023-02-06T10:39:38.098Z,101729.53
2023-02-06T10:42:16.366Z,101729.88
2023-02-06T10:44:53.056Z,101729.72
2023-02-06T10:47:33.799Z,101725.53
2023-02-06T10:50:09.709Z,101725.00
2023-02-06T10:52:39.275Z,101716.75
2023-02-06T10:55:19.515Z,101699.28
2023-02-06T10:57:50.943Z,101712.75
2023-02-06T11:00:25.898Z,101703.31
2023-02-06T11:03:06.589Z,101699.81
2023-02-06T11:05:36.628Z,101705.75
2023-02-06T11:08:12.394Z,101703.47
2023-02-06T11:10:42.147Z,101712.00
2023-02-06T11:13:16.299Z,101695.56
2023-02-06T11:15:50.461Z,101697.66
2023-02-06T11:18:21.777Z,101699.72
2023-02-06T11:20:51.614Z,101681.88
2023-02-06T11:23:20.943Z,101688.81
2023-02-06T11:25:58.557Z,101675.88
2023-02-06T11:28:27.290Z,101673.34
2023-02-06T11:30:58.048Z,101675.06
2023-02-06T11:33:32.694Z,101684.34
2023-02-06T11:36:01.368Z,101682.06
2023-02-06T11:38:31.556Z,101677.16
2023-02-06T11:41:02.954Z,101674.31
2023-02-06T11:43:33.140Z,101680.59
2023-02-06T11:46:14.980Z,101667.97
2023-02-06T11:48:44.919Z,101678.44
2023-02-06T11:51:14.449Z,101661.81
2023-02-06T11:53:57.925Z,101664.75
2023-02-06T11:56:29.073Z,101656.28
2023-02-06T11:59:07.045Z,101650.59
2023-02-06T12:01:44.968Z,101649.84
2023-02-06T12:04:23.696Z,101650.09
2023-02-06T12:06:55.762Z,101629.06
2023-02-06T12:09:23.680Z,101627.94
2023-02-06T12:11:58.028Z,101627.22
2023-02-06T12:14:36.180Z,101606.66
2023-02-06T12:17:09.700Z,101630.44
2023-02-06T12:19:49.792Z,101629.06
2023-02-06T12:22:23.568Z,101631.97
2023-02-06T12:24:54.805Z,101618.84
2023-02-06T12:27:29.217Z,101629.16
2023-02-06T12:30:02.402Z,101625.41
2023-02-06T12:32:36.105Z,101615.47
2023-02-06T12:35:16.345Z,101615.75
2023-02-06T12:37:51.885Z,101613.63
2023-02-06T12:40:36.050Z,101607.31
2023-02-06T12:43:09.483Z,101603.06
2023-02-06T12:45:46.313Z,101598.66
2023-02-06T12:48:20.682Z,101598.56
2023-02-06T12:51:05.736Z,101589.94
2023-02-06T12:53:37.852Z,101588.84
2023-02-06T12:56:21.710Z,101588.03
2023-02-06T12:58:59.626Z,101592.72
2023-02-06T13:01:51.996Z,101591.78
2023-02-06T13:04:23.945Z,101588.84
2023-02-06T13:06:55.242Z,101579.97
2023-02-06T13:09:27.502Z,101577.09
2023-02-06T13:12:08.732Z,101577.19
2023-02-06T13:14:40.002Z,101574.56
2023-02-06T13:17:11.641Z,101569.13
2023-02-06T13:20:00.669Z,101570.88
2023-02-06T13:22:47.447Z,101566.00
2023-02-06T13:25:51.787Z,101578.38
2023-02-06T13:28:59.438Z,101579.59
2023-02-06T13:31:31.317Z,101562.31
2023-02-06T13:34:02.656Z,101565.28
2023-02-06T13:36:47.706Z,101564.44
2023-02-06T13:39:24.162Z,101574.59
2023-02-06T13:41:52.193Z,101571.16
2023-02-06T13:44:26.381Z,101567.72
2023-02-06T13:47:33.742Z,101568.94
2023-02-06T13:50:35.398Z,101566.66
2023-02-06T13:53:32.192Z,101569.56
2023-02-06T13:56:15.394Z,101549.75
2023-02-06T13:58:49.359Z,101569.94
2023-02-06T14:01:22.777Z,101570.19
2023-02-06T14:03:54.094Z,101573.16
2023-02-06T14:06:36.501Z,101572.28
2023-02-06T14:09:30.507Z,101583.34
2023-02-06T14:12:25.363Z,101570.88
2023-02-06T14:15:12.467Z,101573.81
2023-02-06T14:17:59.280Z,101568.31
2023-02-06T14:20:39.340Z,101570.03
2023-02-06T14:23:17.269Z,101569.75
2023-02-06T14:25:57.307Z,101577.88
2023-02-06T14:28:39.221Z,101573.97
2023-02-06T14:31:16.233Z,101583.69
2023-02-06T14:34:10.262Z,101578.31
2023-02-06T14:36:59.441Z,101583.09
2023-02-06T14:39:45.306Z,101585.41
2023-02-06T14:42:18.547Z,101588.88
2023-02-06T14:44:51.355Z,101595.88
2023-02-06T14:47:23.424Z,101607.16
2023-02-06T14:49:52.530Z,101615.53
2023-02-06T14:52:25.136Z,101608.00
2023-02-06T14:54:53.701Z,101608.84
2023-02-06T14:57:25.084Z,101607.97
2023-02-06T14:59:55.787Z,101593.47
2023-02-06T15:02:28.477Z,101606.50
2023-02-06T15:04:57.153Z,101611.72
2023-02-06T15:07:30.965Z,101613.63
2023-02-06T15:10:02.835Z,101616.78
2023-02-06T15:12:32.106Z,101619.25
2023-02-06T15:15:02.853Z,101610.84
2023-02-06T15:17:33.989Z,101614.19
2023-02-06T15:20:36.376Z,101616.28
2023-02-06T15:23:17.880Z,101606.19
2023-02-06T15:26:06.380Z,101605.88
2023-02-06T15:28:37.014Z,101618.59
2023-02-06T15:31:05.259Z,101619.00
2023-02-06T15:33:34.627Z,101617.50
2023-02-06T15:36:04.408Z,101619.66
2023-02-06T15:38:35.046Z,101617.56
2023-02-06T15:41:06.688Z,101617.63
2023-02-06T15:43:36.199Z,101618.53
2023-02-06T15:46:06.247Z,101621.91
2023-02-06T15:48:37.318Z,101619.31
2023-02-06T15:51:19.691Z,101621.94
2023-02-06T15:53:50.950Z,101626.47
2023-02-06T15:56:24.338Z,101637.94
2023-02-06T15:58:58.794Z,101644.06
2023-02-06T16:01:28.962Z,101641.00
2023-02-06T16:04:00.292Z,101650.66
2023-02-06T16:06:28.302Z,101647.44
2023-02-06T16:09:02.848Z,101660.28
2023-02-06T16:11:50.715Z,101656.50
2023-02-06T16:14:22.902Z,101655.69
2023-02-06T16:16:59.035Z,101654.00
2023-02-06T16:19:39.604Z,101668.06
2023-02-06T16:22:16.954Z,101663.91
2023-02-06T16:24:46.600Z,101669.03
2023-02-06T16:27:21.260Z,101672.94
2023-02-06T16:29:52.659Z,101672.50
2023-02-06T16:32:24.970Z,101674.78
2023-02-06T16:34:53.525Z,101663.09
2023-02-06T16:37:23.155Z,101678.66
2023-02-06T16:39:52.976Z,101683.25
2023-02-06T16:42:22.856Z,101675.75
2023-02-06T16:44:54.453Z,101681.72
2023-02-06T16:47:22.957Z,101688.03
2023-02-06T16:49:51.936Z,101686.81
2023-02-06T16:52:23.666Z,101690.50
2023-02-06T16:54:55.618Z,101687.69
2023-02-06T16:57:29.353Z,101661.53
2023-02-06T16:59:57.655Z,101689.84
2023-02-06T17:02:27.056Z,101690.38
2023-02-06T17:04:55.303Z,101691.78
2023-02-06T17:07:26.055Z,101681.09
2023-02-06T17:09:59.348Z,101685.47
2023-02-06T17:12:27.362Z,101680.06
2023-02-06T17:14:55.650Z,101696.16
2023-02-06T17:17:24.306Z,101700.19
2023-02-06T17:19:53.241Z,101701.91
2023-02-06T17:22:21.237Z,101703.50
2023-02-06T17:24:49.423Z,101704.38
2023-02-06T17:27:20.777Z,101701.03
2023-02-06T17:29:49.336Z,101675.94
2023-02-06T17:32:21.650Z,101701.09
2023-02-06T17:34:51.361Z,101686.47
2023-02-06T17:37:21.609Z,101718.66
2023-02-06T17:39:51.207Z,101706.44
2023-02-06T17:42:21.937Z,101713.63
2023-02-06T17:44:50.066Z,101721.16
2023-02-06T17:47:18.319Z,101720.06
2023-02-06T17:49:47.743Z,101725.84
2023-02-06T17:52:15.822Z,101730.94
2023-02-06T17:54:43.752Z,101729.34
2023-02-06T17:57:13.361Z,101720.78
2023-02-06T17:59:42.716Z,101724.28
2023-02-06T18:02:13.559Z,101724.63
2023-02-06T18:04:41.622Z,101732.50
2023-02-06T18:07:09.547Z,101728.47
2023-02-06T18:09:37.684Z,101733.72
2023-02-06T18:12:05.710Z,101734.09
2023-02-06T18:14:33.894Z,101735.81
2023-02-06T18:17:03.791Z,101731.25
2023-02-06T18:19:31.919Z,101732.66
2023-02-06T18:22:00.219Z,101744.22
2023-02-06T18:24:28.068Z,101750.69
2023-02-06T18:26:56.123Z,101740.53
2023-02-06T18:29:24.147Z,101747.56
2023-02-06T18:31:52.029Z,101759.63
2023-02-06T18:34:21.598Z,101756.28
2023-02-06T18:36:49.762Z,101755.06
2023-02-06T18:39:18.167Z,101761.00
2023-02-06T18:42:03.581Z,101765.53
2023-02-06T18:44:31.679Z,101761.19
2023-02-06T18:46:59.611Z,101766.59
2023-02-06T18:49:28.921Z,101766.59
2023-02-06T18:51:56.934Z,101774.97
2023-02-06T18:54:25.003Z,101769.38
2023-02-06T18:56:52.923Z,101770.44
2023-02-06T18:59:21.034Z,101767.81
2023-02-06T19:01:49.199Z,101776.72
2023-02-06T19:04:17.119Z,101769.75
2023-02-06T19:06:47.216Z,101776.41
2023-02-06T19:09:16.030Z,101775.53
2023-02-06T19:11:44.309Z,101779.88
2023-02-06T19:14:15.817Z,101778.13
2023-02-06T19:16:47.350Z,101784.06
2023-02-06T19:19:15.667Z,101784.53
2023-02-06T19:21:44.242Z,101793.81
2023-02-06T19:24:15.649Z,101786.81
2023-02-06T19:26:44.254Z,101791.34
2023-02-06T19:29:34.347Z,101787.88
2023-02-06T19:32:03.699Z,101790.81
2023-02-06T19:34:33.503Z,101790.66
2023-02-06T19:37:02.842Z,101795.34
2023-02-06T19:39:34.083Z,101784.66
2023-02-06T19:42:04.133Z,101789.59
2023-02-06T19:44:33.371Z,101783.84
2023-02-06T19:47:02.454Z,101788.25
2023-02-06T19:49:31.397Z,101788.59
2023-02-06T19:51:59.358Z,101798.41
2023-02-06T19:54:27.400Z,101796.16
2023-02-06T19:56:56.734Z,101787.94
2023-02-06T19:59:26.511Z,101787.22
2023-02-06T20:01:57.086Z,101796.16
2023-02-06T20:04:28.086Z,101803.63
2023-02-06T20:06:58.807Z,101814.47
2023-02-06T20:09:28.351Z,101818.47
2023-02-06T20:11:58.516Z,101817.75
2023-02-06T20:14:30.352Z,101803.94
2023-02-06T20:16:58.439Z,101803.56
2023-02-06T20:19:28.971Z,101805.13
2023-02-06T20:21:58.958Z,101800.22
2023-02-06T20:24:29.092Z,101779.03
2023-02-06T20:27:06.672Z,101798.31
2023-02-06T20:29:37.729Z,101796.03
2023-02-06T20:32:06.704Z,101805.13
2023-02-06T20:34:35.463Z,101812.66
2023-02-06T20:37:04.026Z,101821.50
2023-02-06T20:39:32.071Z,101826.91
2023-02-06T20:42:01.352Z,101831.44
2023-02-06T20:44:29.788Z,101830.75
2023-02-06T20:46:57.666Z,101828.25
2023-02-06T20:49:27.643Z,101834.69
2023-02-06T20:51:55.694Z,101838.53
2023-02-06T20:54:24.914Z,101852.63
2023-02-06T20:56:53.295Z,101852.94
2023-02-06T20:59:23.180Z,101843.41
2023-02-06T21:01:51.016Z,101847.28
2023-02-06T21:04:20.162Z,101848.75
2023-02-06T21:06:49.862Z,101835.34
2023-02-06T21:09:18.879Z,101837.97
2023-02-06T21:11:48.612Z,101836.78
2023-02-06T21:14:17.212Z,101836.44
2023-02-06T21:16:46.681Z,101838.34
2023-02-06T21:19:16.958Z,101832.06
2023-02-06T21:21:46.323Z,101831.69
2023-02-06T21:24:15.646Z,101835.28
2023-02-06T21:26:43.953Z,101836.56
2023-02-06T21:29:14.164Z,101834.56
2023-02-06T21:31:42.270Z,101852.34
2023-02-06T21:34:14.633Z,101849.69
2023-02-06T21:36:42.746Z,101857.72
2023-02-06T21:39:12.637Z,101839.81
2023-02-06T21:41:40.550Z,101853.88
2023-02-06T21:44:08.527Z,101857.56
2023-02-06T21:46:36.471Z,101839.53
2023-02-06T21:49:06.350Z,101846.88
2023-02-06T21:51:35.642Z,101854.53
2023-02-06T21:54:03.900Z,101855.59
2023-02-06T21:56:32.209Z,101860.13
2023-02-06T21:59:00.104Z,101857.91
2023-02-06T22:01:30.868Z,101864.53
2023-02-06T22:03:59.672Z,101875.31
2023-02-06T22:06:28.939Z,101862.31
2023-02-06T22:09:05.130Z,101876.28
2023-02-06T22:11:33.162Z,101866.16
2023-02-06T22:14:02.556Z,101878.41
2023-02-06T22:16:30.671Z,101878.41
2023-02-06T22:19:00.620Z,101887.81
2023-02-06T22:21:30.195Z,101888.31
2023-02-06T22:24:01.068Z,101893.34
2023-02-06T22:26:31.026Z,101893.19
2023-02-06T22:28:58.974Z,101890.06
2023-02-06T22:31:29.008Z,101900.38
2023-02-06T22:33:58.806Z,101896.56
2023-02-06T22:36:29.055Z,101901.75
2023-02-06T22:39:01.126Z,101910.09
2023-02-06T22:41:29.834Z,101908.28
2023-02-06T22:43:58.370Z,101906.53
2023-02-06T22:46:28.181Z,101904.81
2023-02-06T22:48:56.568Z,101914.22
2023-02-06T22:51:25.003Z,101919.31
2023-02-06T22:53:53.328Z,101904.88
2023-02-06T22:56:36.042Z,101909.16
2023-02-06T22:59:06.307Z,101911.13
2023-02-06T23:01:36.329Z,101917.50
2023-02-06T23:04:06.529Z,101932.38
2023-02-06T23:06:36.106Z,101939.59
2023-02-06T23:09:06.520Z,101941.97
2023-02-06T23:11:36.482Z,101950.03
2023-02-06T23:14:06.508Z,101949.94
2023-02-06T23:16:35.690Z,101917.88
2023-02-06T23:19:05.647Z,101946.28
2023-02-06T23:21:35.878Z,101943.84
2023-02-06T23:24:05.003Z,101950.81
2023-02-06T23:26:33.224Z,101959.34
2023-02-06T23:29:08.718Z,101957.97
2023-02-06T23:31:37.598Z,101958.47
2023-02-06T23:34:05.753Z,101966.09
2023-02-06T23:36:33.859Z,101971.81
2023-02-06T23:39:02.770Z,101972.38
2023-02-06T23:41:31.009Z,101976.38
2023-02-06T23:44:00.564Z,101984.69
2023-02-06T23:46:32.241Z,101982.25
2023-02-06T23:49:00.346Z,101980.50
2023-02-06T23:51:28.590Z,101979.06
2023-02-06T23:53:56.443Z,101977.84
2023-02-06T23:56:25.989Z,101969.66
2023-02-06T23:58:54.920Z,101967.22
